Time;durP1;ratioP1;P1;durP2;ratioP2;P2;SDS_P1;SDS_P2;PMS_P1;PMS_P2;Temp;Humidity;BMP_temperature;BMP_pressure;BME280_temperature;BME280_humidity;BME280_pressure;Samples;Min_cycle;Max_cycle;Signal;HPM_P1;HPM_P2
2022/11/29 00:00:13;;;;;;;2.42;1.08;;;20.20;74.10;;;;;;5033906;28;20029;-74
2022/11/29 00:02:39;;;;;;;1.83;1.27;;;20.20;74.40;;;;;;5033690;28;20022;-74
2022/11/29 00:05:06;;;;;;;2.28;1.10;;;20.20;74.20;;;;;;5033876;28;20026;-74
2022/11/29 00:07:31;;;;;;;2.58;1.27;;;20.20;74.20;;;;;;5033592;28;20104;-74
2022/11/29 00:09:57;;;;;;;2.80;1.33;;;20.10;74.20;;;;;;5032680;28;20061;-74
2022/11/29 00:12:22;;;;;;;1.60;1.20;;;20.20;74.20;;;;;;5033882;28;20080;-74
2022/11/29 00:14:48;;;;;;;2.92;1.30;;;20.20;74.30;;;;;;5030803;28;20433;-74
2022/11/29 00:17:14;;;;;;;3.10;1.73;;;20.20;74.30;;;;;;5013599;28;20026;-74
2022/11/29 00:19:39;;;;;;;4.20;1.67;;;20.10;74.30;;;;;;5013767;28;20030;-74
2022/11/29 00:22:05;;;;;;;3.67;1.10;;;20.10;74.20;;;;;;5013850;28;20459;-75
2022/11/29 00:24:31;;;;;;;3.13;1.55;;;20.20;74.30;;;;;;5013614;28;20034;-74
2022/11/29 00:26:57;;;;;;;1.92;1.40;;;20.20;74.30;;;;;;5013587;28;20018;-75
2022/11/29 00:29:22;;;;;;;2.42;1.13;;;20.10;74.20;;;;;;5012392;28;20037;-74
2022/11/29 00:31:48;;;;;;;2.17;1.45;;;20.20;74.30;;;;;;5013384;28;20109;-74
2022/11/29 00:34:13;;;;;;;2.45;1.50;;;20.10;74.30;;;;;;5013510;28;20030;-74
2022/11/29 00:36:39;;;;;;;2.55;1.45;;;20.10;74.30;;;;;;5012436;28;20080;-74
2022/11/29 00:39:05;;;;;;;2.92;1.27;;;20.10;74.30;;;;;;5013396;28;20101;-74
2022/11/29 00:41:31;;;;;;;2.22;1.30;;;20.10;74.30;;;;;;5012098;28;20034;-74
2022/11/29 00:43:57;;;;;;;4.07;1.50;;;20.10;74.30;;;;;;5013411;28;20029;-74
2022/11/29 00:46:23;;;;;;;3.13;1.30;;;20.10;74.30;;;;;;5012789;28;20029;-74
2022/11/29 00:48:49;;;;;;;2.03;1.17;;;20.10;74.40;;;;;;5013306;28;20018;-74
2022/11/29 00:51:15;;;;;;;2.58;1.27;;;20.10;74.40;;;;;;5013358;28;20029;-74
2022/11/29 00:53:40;;;;;;;2.90;1.42;;;20.10;74.40;;;;;;5013152;28;20026;-74
2022/11/29 00:56:06;;;;;;;2.42;1.20;;;20.10;74.50;;;;;;5012156;28;20081;-74
2022/11/29 00:58:32;;;;;;;3.75;1.55;;;20.10;74.40;;;;;;5021860;28;20496;-74
2022/11/29 01:00:58;;;;;;;2.33;1.10;;;20.10;74.50;;;;;;5031441;28;20025;-75
2022/11/29 01:03:23;;;;;;;1.52;1.15;;;20.10;74.50;;;;;;5032733;28;20100;-74
2022/11/29 01:05:49;;;;;;;2.40;1.30;;;20.10;74.50;;;;;;5031556;28;20036;-74
2022/11/29 01:08:15;;;;;;;3.72;1.17;;;20.10;74.50;;;;;;5031437;28;20026;-74
2022/11/29 01:10:40;;;;;;;1.85;1.20;;;20.10;74.50;;;;;;5031444;28;20025;-74
2022/11/29 01:13:06;;;;;;;2.97;1.67;;;20.10;74.50;;;;;;5032529;28;20028;-74
2022/11/29 01:15:32;;;;;;;4.70;1.48;;;20.10;74.50;;;;;;5023704;28;20068;-74
2022/11/29 01:17:58;;;;;;;2.63;1.23;;;20.10;74.50;;;;;;5011738;28;20022;-74
2022/11/29 01:20:23;;;;;;;1.60;0.98;;;20.10;74.50;;;;;;5012616;28;20554;-74
2022/11/29 01:22:49;;;;;;;2.38;1.17;;;20.10;74.50;;;;;;5011504;28;20053;-74
2022/11/29 01:25:15;;;;;;;2.10;1.10;;;20.10;74.50;;;;;;5012762;28;20057;-74
2022/11/29 01:27:40;;;;;;;3.58;1.20;;;20.10;74.50;;;;;;5011395;28;20022;-74
2022/11/29 01:30:07;;;;;;;2.47;1.05;;;20.10;74.50;;;;;;5011480;28;20148;-74
2022/11/29 01:32:32;;;;;;;1.52;0.93;;;20.10;74.50;;;;;;5012436;28;20507;-74
2022/11/29 01:34:58;;;;;;;2.97;1.33;;;20.10;74.60;;;;;;5012595;28;20030;-74
2022/11/29 01:37:23;;;;;;;2.55;1.20;;;20.10;74.90;;;;;;5012622;28;20495;-74
2022/11/29 01:39:49;;;;;;;2.38;1.10;;;20.10;74.70;;;;;;5012551;28;20030;-74
2022/11/29 01:42:15;;;;;;;4.20;1.20;;;20.10;74.60;;;;;;5011226;28;20036;-74
2022/11/29 01:44:43;;;;;;;2.17;1.00;;;20.10;74.60;;;;;;5012201;28;20022;-74
2022/11/29 01:47:10;;;;;;;1.77;1.02;;;20.10;74.70;;;;;;5012576;28;20028;-75
2022/11/29 01:49:37;;;;;;;1.15;0.80;;;20.10;74.70;;;;;;5011067;28;20014;-74
2022/11/29 01:52:15;;;;;;;2.55;1.30;;;20.10;74.70;;;;;;5011465;28;20350;-74
2022/11/29 01:54:43;;;;;;;2.80;1.20;;;20.10;74.70;;;;;;5011236;28;20026;-74
2022/11/29 01:57:08;;;;;;;1.88;1.25;;;20.10;74.70;;;;;;5012364;28;20455;-74
2022/11/29 01:59:35;;;;;;;3.50;1.35;;;20.10;74.80;;;;;;5033509;28;20038;-74
2022/11/29 02:02:09;;;;;;;3.60;1.02;;;20.10;74.80;;;;;;5035018;28;20045;-74
2022/11/29 02:04:34;;;;;;;2.33;1.30;;;20.10;74.80;;;;;;5035221;28;20093;-74
2022/11/29 02:07:00;;;;;;;2.63;1.20;;;20.10;74.80;;;;;;5034911;28;20452;-74
2022/11/29 02:09:26;;;;;;;2.50;1.23;;;20.10;74.80;;;;;;5036120;28;20172;-75
2022/11/29 02:12:11;;;;;;;2.63;1.10;;;20.10;74.80;;;;;;5034844;28;20446;-74
2022/11/29 02:15:04;;;;;;;1.15;1.00;;;20.10;74.80;;;;;;5035577;28;20109;-74
2022/11/29 02:17:32;;;;;;;;;;;20.10;74.90;;;;;;5015541;28;20511;-74
2022/11/29 02:20:33;;;;;;;2.10;0.90;;;20.10;74.90;;;;;;5016198;28;20003;-74
2022/11/29 02:23:26;;;;;;;1.85;1.20;;;20.10;74.90;;;;;;5004044;28;20056;-74
2022/11/29 02:25:58;;;;;;;2.83;1.00;;;20.10;74.90;;;;;;5016003;28;20377;-75
2022/11/29 02:28:52;;;;;;;2.42;1.10;;;20.10;75.00;;;;;;5014588;28;20423;-75
2022/11/29 02:31:17;;;;;;;2.78;1.27;;;20.10;74.90;;;;;;5015960;28;20025;-75
2022/11/29 02:33:52;;;;;;;1.33;1.08;;;20.10;74.90;;;;;;5015681;28;20037;-75
2022/11/29 02:36:30;;;;;;;1.40;0.90;;;20.10;75.00;;;;;;5015734;28;20025;-75
2022/11/29 02:39:16;;;;;;;2.15;1.00;;;20.10;75.00;;;;;;5014322;28;20539;-75
2022/11/29 02:41:42;;;;;;;4.78;1.23;;;20.10;75.00;;;;;;5014362;28;20030;-75
2022/11/29 02:44:20;;;;;;;1.80;0.93;;;20.10;75.10;;;;;;5015572;28;20022;-75
2022/11/29 02:46:45;;;;;;;1.30;1.00;;;20.10;75.00;;;;;;5014348;28;20436;-74
2022/11/29 02:49:18;;;;;;;2.00;1.23;;;20.10;75.00;;;;;;5015394;28;20053;-74
2022/11/29 02:51:59;;;;;;;2.67;0.93;;;20.10;75.00;;;;;;5014136;28;20109;-74
2022/11/29 02:54:52;;;;;;;1.27;0.98;;;20.10;75.00;;;;;;5014329;28;20128;-74
2022/11/29 02:57:40;;;;;;;2.42;0.95;;;20.10;75.00;;;;;;5014174;28;20041;-75
2022/11/29 03:00:13;;;;;;;2.42;1.00;;;20.10;75.00;;;;;;5014152;28;20125;-75
2022/11/29 03:02:54;;;;;;;1.90;0.90;;;20.10;75.00;;;;;;5014096;28;20037;-74
2022/11/29 03:05:43;;;;;;;3.85;1.30;;;20.10;75.00;;;;;;5014268;28;20472;-74
2022/11/29 03:08:09;;;;;;;1.77;1.02;;;20.10;75.00;;;;;;5014852;28;20014;-74
2022/11/29 03:10:38;;;;;;;2.45;1.20;;;20.10;75.10;;;;;;5014969;28;20026;-74
2022/11/29 03:13:08;;;;;;;2.13;1.08;;;20.10;75.10;;;;;;5013846;28;20520;-74
2022/11/29 03:15:41;;;;;;;2.42;1.00;;;20.10;75.00;;;;;;5017990;28;20017;-74
2022/11/29 03:18:33;;;;;;;1.75;1.10;;;20.10;75.00;;;;;;5031099;28;20025;-74
2022/11/29 03:21:17;;;;;;;2.27;0.80;;;20.10;75.10;;;;;;5014817;28;20452;-74
2022/11/29 03:23:48;;;;;;;1.63;0.93;;;20.10;75.10;;;;;;5014766;28;20122;-75
2022/11/29 03:26:43;;;;;;;2.80;0.77;;;20.10;75.10;;;;;;5013501;28;20447;-74
2022/11/29 03:29:31;;;;;;;3.53;0.90;;;20.10;75.00;;;;;;5014002;28;20464;-75
2022/11/29 03:32:15;;;;;;;3.03;1.20;;;20.10;75.00;;;;;;5030083;28;20018;-75
2022/11/29 03:34:58;;;;;;;1.65;0.80;;;20.10;75.10;;;;;;5030865;28;20484;-75
2022/11/29 03:37:33;;;;;;;1.50;1.00;;;20.10;75.20;;;;;;5013712;28;20022;-75
2022/11/29 03:40:08;;;;;;;1.42;0.90;;;20.10;75.20;;;;;;5014449;28;20030;-75
2022/11/29 03:42:44;;;;;;;2.08;1.05;;;20.10;75.20;;;;;;5029931;28;20029;-75
2022/11/29 03:45:16;;;;;;;4.72;0.75;;;20.10;75.20;;;;;;5014582;28;20022;-75
2022/11/29 03:48:10;;;;;;;1.70;0.90;;;20.10;75.20;;;;;;5029535;28;20021;-75
2022/11/29 03:50:40;;;;;;;1.55;0.80;;;20.10;75.30;;;;;;5027551;28;20040;-75
2022/11/29 03:53:27;;;;;;;2.53;1.00;;;20.10;75.20;;;;;;5013320;28;20090;-75
2022/11/29 03:55:55;;;;;;;4.50;1.10;;;20.10;75.20;;;;;;5014228;28;20112;-75
2022/11/29 03:58:24;;;;;;;2.15;0.95;;;20.10;75.20;;;;;;5020646;28;20056;-75
2022/11/29 04:01:17;;;;;;;1.48;0.75;;;20.10;75.30;;;;;;5033826;28;20493;-75
2022/11/29 04:04:10;;;;;;;3.83;0.80;;;20.10;75.20;;;;;;5032885;28;20122;-75
2022/11/29 04:06:57;;;;;;;1.63;0.90;;;20.10;75.30;;;;;;5034016;28;20021;-75
2022/11/29 04:09:41;;;;;;;1.98;1.05;;;20.10;75.30;;;;;;5032550;28;20391;-75
2022/11/29 04:12:35;;;;;;;1.67;1.00;;;20.10;75.30;;;;;;5032593;28;20029;-75
2022/11/29 04:15:21;;;;;;;3.60;1.10;;;20.10;75.40;;;;;;5031348;28;20024;-76
2022/11/29 04:17:55;;;;;;;2.53;0.90;;;20.10;75.40;;;;;;5017900;28;20033;-75
2022/11/29 04:20:39;;;;;;;7.90;1.00;;;20.10;75.30;;;;;;5032214;28;20022;-74
2022/11/29 04:23:24;;;;;;;3.00;0.70;;;20.10;75.30;;;;;;5034102;28;20034;-75
2022/11/29 04:26:10;;;;;;;1.83;1.08;;;20.10;75.20;;;;;;5033958;28;20033;-75
2022/11/29 04:28:39;;;;;;;5.47;0.90;;;20.10;75.30;;;;;;5034049;28;20033;-75
2022/11/29 04:31:23;;;;;;;4.57;1.00;;;20.00;75.20;;;;;;5031804;28;20446;-74
2022/11/29 04:34:07;;;;;;;5.43;0.80;;;20.10;75.30;;;;;;5013440;28;20018;-75
2022/11/29 04:36:51;;;;;;;1.27;1.00;;;20.10;75.30;;;;;;5013618;28;20030;-75
2022/11/29 04:39:25;;;;;;;2.70;0.90;;;20.10;75.20;;;;;;5013503;28;20022;-75
2022/11/29 04:42:11;;;;;;;1.40;0.70;;;20.10;75.20;;;;;;5013319;28;20384;-75
2022/11/29 04:44:43;;;;;;;2.05;1.00;;;20.10;75.20;;;;;;5013087;28;20548;-75
2022/11/29 04:47:19;;;;;;;1.45;0.63;;;20.10;75.20;;;;;;5013524;28;20026;-75
2022/11/29 04:49:48;;;;;;;3.30;0.80;;;20.10;75.20;;;;;;5012111;28;20033;-74
2022/11/29 04:52:44;;;;;;;2.53;0.80;;;20.10;75.20;;;;;;5013129;28;20049;-75
2022/11/29 04:55:16;;;;;;;3.00;0.90;;;20.10;75.20;;;;;;5011989;28;20022;-75
2022/11/29 04:58:02;;;;;;;1.30;0.85;;;20.10;75.20;;;;;;5015026;28;20148;-75
2022/11/29 05:00:28;;;;;;;2.65;1.13;;;20.10;75.30;;;;;;5064849;28;20453;-74
2022/11/29 05:02:58;;;;;;;5.35;1.10;;;20.10;75.30;;;;;;5031560;28;20029;-74
2022/11/29 05:05:35;;;;;;;3.50;1.08;;;20.10;75.20;;;;;;5031691;28;20056;-74
2022/11/29 05:08:25;;;;;;;2.40;0.80;;;20.10;75.30;;;;;;5031455;28;20087;-75
2022/11/29 05:11:04;;;;;;;1.98;0.60;;;20.10;75.30;;;;;;5032633;28;20088;-75
2022/11/29 05:13:39;;;;;;;3.20;0.70;;;20.10;75.30;;;;;;5032715;28;20053;-74
2022/11/29 05:16:18;;;;;;;1.88;0.93;;;20.10;75.30;;;;;;5019413;28;20026;-75
2022/11/29 05:19:05;;;;;;;2.42;1.02;;;20.10;75.40;;;;;;5011771;28;20026;-74
2022/11/29 05:22:05;;;;;;;1.10;0.80;;;20.10;75.30;;;;;;5012430;28;20080;-74
2022/11/29 05:24:55;;;;;;;1.17;0.75;;;20.10;75.30;;;;;;5012842;28;20125;-74
2022/11/29 05:27:51;;;;;;;2.55;0.93;;;20.10;75.30;;;;;;5012876;28;20057;-74
2022/11/29 05:30:19;;;;;;;1.67;0.82;;;20.10;75.40;;;;;;5021835;28;20104;-75
2022/11/29 05:33:09;;;;;;;2.47;0.70;;;20.00;75.30;;;;;;5030630;28;20024;-74
2022/11/29 05:36:14;;;;;;;1.20;0.80;;;20.10;75.40;;;;;;5031082;28;20033;-74
2022/11/29 05:38:48;;;;;;;2.05;0.88;;;20.10;75.40;;;;;;5010528;28;20460;-74
2022/11/29 05:41:34;;;;;;;1.55;0.90;;;20.10;75.40;;;;;;5010831;28;20042;-74
2022/11/29 05:44:00;;;;;;;2.45;1.00;;;20.10;75.40;;;;;;4979018;28;20129;-75
2022/11/29 05:46:36;;;;;;;1.90;0.85;;;20.10;75.40;;;;;;5010827;28;20101;-74
2022/11/29 05:49:30;;;;;;;1.75;0.90;;;20.10;75.40;;;;;;4994197;28;20030;-75
2022/11/29 05:52:31;;;;;;;1.85;0.77;;;20.10;75.50;;;;;;5010600;28;20030;-74
2022/11/29 05:55:24;;;;;;;4.28;1.05;;;20.10;75.40;;;;;;4996860;28;20410;-74
2022/11/29 05:57:57;;;;;;;;;;;20.10;75.40;;;;;;4994451;28;20041;-74
2022/11/29 06:00:23;;;;;;;2.10;0.90;;;20.10;75.50;;;;;;4994102;28;19906;-74
2022/11/29 06:02:58;;;;;;;2.53;1.00;;;20.10;75.50;;;;;;4994164;28;20058;-74
2022/11/29 06:05:53;;;;;;;2.03;0.70;;;20.10;75.50;;;;;;5010622;28;20538;-74
2022/11/29 06:08:34;;;;;;;1.75;0.77;;;20.10;75.50;;;;;;4994356;28;20432;-74
2022/11/29 06:11:22;;;;;;;1.42;0.60;;;20.10;75.50;;;;;;4994041;28;20053;-74
2022/11/29 06:13:54;;;;;;;2.38;0.60;;;20.10;75.50;;;;;;4993799;28;20039;-75
2022/11/29 06:16:46;;;;;;;2.38;0.88;;;20.10;75.50;;;;;;5009910;28;20042;-74
2022/11/29 06:19:24;;;;;;;0.82;0.50;;;20.10;75.50;;;;;;5031178;28;20021;-74
2022/11/29 06:21:53;;;;;;;1.30;0.55;;;20.10;75.50;;;;;;5031984;28;20026;-74
2022/11/29 06:24:28;;;;;;;2.00;0.80;;;20.10;75.60;;;;;;5030926;28;20498;-75
2022/11/29 06:27:28;;;;;;;0.98;0.57;;;20.10;75.50;;;;;;5032085;28;20025;-75
2022/11/29 06:29:57;;;;;;;3.22;1.05;;;20.10;75.50;;;;;;5031240;28;20017;-75
2022/11/29 06:32:36;;;;;;;1.20;0.70;;;20.10;75.50;;;;;;5032097;28;20100;-75
2022/11/29 06:35:13;;;;;;;3.13;0.73;;;20.10;75.50;;;;;;5030724;28;20088;-75
2022/11/29 06:37:41;;;;;;;2.03;0.65;;;20.10;75.50;;;;;;5032193;28;20029;-74
2022/11/29 06:40:11;;;;;;;0.82;0.60;;;20.10;75.50;;;;;;5030967;28;20459;-74
2022/11/29 06:42:37;;;;;;;4.07;0.70;;;20.10;75.50;;;;;;5031332;28;20040;-75
2022/11/29 06:45:04;;;;;;;1.75;0.77;;;20.10;75.50;;;;;;5034432;28;20022;-75
2022/11/29 06:47:40;;;;;;;3.55;0.82;;;20.10;75.60;;;;;;5034778;28;20030;-76
2022/11/29 06:50:41;;;;;;;3.63;0.75;;;20.10;75.60;;;;;;5035525;28;20071;-76
2022/11/29 06:53:15;;;;;;;3.28;0.82;;;20.00;72.00;;;;;;5036252;28;20057;-76
2022/11/29 06:55:44;;;;;;;4.53;1.02;;;19.90;72.00;;;;;;5034565;28;20025;-76
2022/11/29 06:58:15;;;;;;;2.05;0.90;;;19.80;71.80;;;;;;5035433;28;20049;-73
2022/11/29 07:00:57;;;;;;;2.85;0.80;;;19.80;72.10;;;;;;5035555;28;20030;-73
2022/11/29 07:03:49;;;;;;;1.95;0.60;;;19.80;72.20;;;;;;5034299;28;20018;-74
2022/11/29 07:06:20;;;;;;;3.47;0.70;;;19.70;72.00;;;;;;5032443;28;20037;-74
2022/11/29 07:08:48;;;;;;;4.07;0.88;;;19.70;72.00;;;;;;5034510;28;20091;-74
2022/11/29 07:11:13;;;;;;;1.45;0.77;;;19.70;71.90;;;;;;5034143;28;20025;-74
2022/11/29 07:13:39;;;;;;;2.70;1.00;;;19.70;72.00;;;;;;5033983;28;20025;-75
2022/11/29 07:21:43;;;;;;;1.20;0.52;;;19.60;71.80;;;;;;4979014;28;20034;-73
2022/11/29 07:24:33;;;;;;;2.33;0.80;;;19.60;71.80;;;;;;4992154;28;20047;-73
2022/11/29 07:27:09;;;;;;;2.33;0.98;;;19.60;72.00;;;;;;4992974;28;20045;-73
2022/11/29 07:29:56;;;;;;;2.47;0.68;;;19.50;71.70;;;;;;4994663;28;20018;-73
2022/11/29 07:32:24;;;;;;;2.35;0.77;;;19.50;71.90;;;;;;4995133;28;20386;-74
2022/11/29 07:35:13;;;;;;;42.58;6.65;;;19.50;72.00;;;;;;4994813;28;20084;-74
2022/11/29 07:38:12;;;;;;;40.45;5.72;;;19.50;72.40;;;;;;4993560;28;20030;-72
2022/11/29 07:41:04;;;;;;;34.03;4.28;;;19.50;73.30;;;;;;4988609;28;20484;-72
2022/11/29 07:43:51;;;;;;;22.95;4.38;;;19.40;73.50;;;;;;4982110;28;20058;-72
2022/11/29 07:46:16;;;;;;;19.33;4.15;;;19.40;73.40;;;;;;4980824;28;20164;-72
2022/11/29 07:48:42;;;;;;;25.73;3.78;;;19.40;73.60;;;;;;4992781;28;20113;-72
2022/11/29 07:51:08;;;;;;;21.65;3.78;;;19.40;73.70;;;;;;4993007;28;20153;-72
2022/11/29 07:53:34;;;;;;;27.02;4.00;;;19.40;73.90;;;;;;4992805;28;20023;-72
2022/11/29 07:56:00;;;;;;;28.92;4.50;;;19.30;73.90;;;;;;4990946;28;20037;-72
2022/11/29 07:58:26;;;;;;;22.33;3.55;;;19.30;73.80;;;;;;4991491;28;20014;-72
2022/11/29 08:00:51;;;;;;;21.88;3.88;;;19.30;73.60;;;;;;4993392;28;20026;-72
2022/11/29 08:03:17;;;;;;;21.15;3.53;;;19.30;73.50;;;;;;5009336;28;20026;-72
2022/11/29 08:05:45;;;;;;;22.35;4.63;;;19.30;73.30;;;;;;4994749;28;20424;-72
2022/11/29 08:08:10;;;;;;;18.50;3.95;;;19.30;73.30;;;;;;4993334;28;20109;-72
2022/11/29 08:10:36;;;;;;;16.48;3.38;;;19.30;73.30;;;;;;4994676;28;20113;-72
2022/11/29 08:13:02;;;;;;;23.80;3.42;;;19.30;73.40;;;;;;5009770;28;20030;-72
2022/11/29 08:15:27;;;;;;;17.95;3.40;;;19.20;73.40;;;;;;5009362;28;20038;-72
2022/11/29 08:17:53;;;;;;;16.40;3.90;;;19.30;73.50;;;;;;4994363;28;20073;-72
2022/11/29 08:20:19;;;;;;;13.70;3.17;;;19.30;73.50;;;;;;5003746;28;20072;-72
2022/11/29 08:22:51;;;;;;;13.93;3.25;;;19.20;73.30;;;;;;5033676;28;20037;-72
2022/11/29 08:25:17;;;;;;;16.40;3.00;;;19.20;73.30;;;;;;5033383;28;20053;-72
2022/11/29 08:27:43;;;;;;;15.68;3.38;;;19.20;73.20;;;;;;5004141;28;20436;-72
2022/11/29 08:30:09;;;;;;;16.20;4.15;;;19.20;73.30;;;;;;5033541;28;20026;-72
2022/11/29 08:32:34;;;;;;;16.15;3.55;;;19.20;73.40;;;;;;5033272;28;20026;-72
2022/11/29 08:35:00;;;;;;;13.70;3.50;;;19.20;73.40;;;;;;4999505;28;20147;-72
2022/11/29 08:37:26;;;;;;;17.55;3.10;;;19.20;73.40;;;;;;5033174;28;20029;-72
2022/11/29 08:39:51;;;;;;;13.02;2.95;;;19.20;73.40;;;;;;5033463;28;20032;-72
2022/11/29 08:42:17;;;;;;;15.68;3.17;;;19.20;73.50;;;;;;5015726;28;20036;-72
2022/11/29 08:44:42;;;;;;;11.63;3.05;;;19.20;73.40;;;;;;5033307;28;20025;-72
2022/11/29 08:50:02;;;;;;;16.95;3.55;;;19.20;73.40;;;;;;5033351;28;20095;-72
2022/11/29 08:55:20;;;;;;;11.85;3.53;;;19.20;73.50;;;;;;5018442;28;20037;-72
2022/11/29 08:57:46;;;;;;;10.43;2.75;;;19.20;73.50;;;;;;5010398;28;20030;-72
2022/11/29 09:00:13;;;;;;;13.85;2.97;;;19.10;73.50;;;;;;4995504;28;20115;-72
2022/11/29 09:02:38;;;;;;;9.32;3.22;;;19.10;73.50;;;;;;5013318;28;20068;-72
2022/11/29 09:05:05;;;;;;;18.63;3.28;;;19.10;73.50;;;;;;4997431;28;20116;-72
2022/11/29 09:07:31;;;;;;;11.07;2.70;;;19.10;73.50;;;;;;4998688;28;20164;-72
2022/11/29 09:09:56;;;;;;;9.43;2.83;;;19.10;73.50;;;;;;5032703;28;20093;-72
2022/11/29 09:12:22;;;;;;;18.15;3.53;;;19.10;73.50;;;;;;5015363;28;20025;-72
2022/11/29 09:14:48;;;;;;;12.15;3.42;;;19.10;73.50;;;;;;5032666;28;20136;-72
2022/11/29 09:17:13;;;;;;;10.68;2.60;;;19.10;73.50;;;;;;5015297;28;20026;-72
2022/11/29 09:19:39;;;;;;;11.65;3.25;;;19.10;73.60;;;;;;5014889;28;20037;-72
2022/11/29 09:22:05;;;;;;;8.00;2.90;;;19.10;73.50;;;;;;5032383;28;20045;-72
2022/11/29 09:24:31;;;;;;;11.55;3.03;;;19.10;73.60;;;;;;5032597;28;20095;-72
2022/11/29 09:26:57;;;;;;;8.70;2.80;;;19.10;73.50;;;;;;5015283;28;20483;-72
2022/11/29 09:29:23;;;;;;;7.88;2.30;;;19.10;73.60;;;;;;5032332;28;20028;-72
2022/11/29 09:31:48;;;;;;;10.75;2.60;;;19.10;73.60;;;;;;5032532;28;20053;-72
2022/11/29 09:34:14;;;;;;;11.80;3.22;;;19.10;73.60;;;;;;5014943;28;20458;-72
2022/11/29 09:36:42;;;;;;;8.13;2.75;;;19.10;73.60;;;;;;5014959;28;20040;-72
2022/11/29 09:39:08;;;;;;;7.57;1.88;;;19.10;73.50;;;;;;5015202;28;20057;-72
2022/11/29 09:41:49;;;;;;;7.47;2.70;;;19.10;73.60;;;;;;5014787;28;20483;-72
2022/11/29 09:44:44;;;;;;;7.40;2.05;;;19.10;73.50;;;;;;5032285;28;20057;-72
2022/11/29 09:47:23;;;;;;;8.52;2.20;;;19.10;73.50;;;;;;5014872;28;20014;-72
2022/11/29 09:49:55;;;;;;;10.63;2.13;;;19.10;73.50;;;;;;5016100;28;20025;-72
2022/11/29 09:52:35;;;;;;;7.27;2.17;;;19.10;73.50;;;;;;5032327;28;20025;-72
2022/11/29 09:55:19;;;;;;;9.60;2.55;;;19.10;73.50;;;;;;5014710;28;20021;-72
2022/11/29 09:57:45;;;;;;;6.35;2.42;;;19.10;73.50;;;;;;5027073;28;20040;-72
2022/11/29 10:00:15;;;;;;;7.25;2.05;;;19.10;73.50;;;;;;4995204;28;20022;-72
2022/11/29 10:05:46;;;;;;;8.20;2.92;;;19.00;73.30;;;;;;4533780;23;22014;-73
2022/11/29 10:08:14;;;;;;;10.48;2.80;;;19.10;73.50;;;;;;4939008;29;20035;-71
2022/11/29 10:10:47;;;;;;;4.28;1.95;;;19.00;73.40;;;;;;4954215;29;20035;-71
2022/11/29 10:13:17;;;;;;;7.57;2.00;;;19.00;73.40;;;;;;4926529;29;20153;-71
2022/11/29 10:15:44;;;;;;;4.38;1.75;;;19.00;73.40;;;;;;4934007;29;20028;-71
2022/11/29 10:18:22;;;;;;;6.05;2.03;;;19.00;73.40;;;;;;4919457;29;20034;-71
2022/11/29 10:20:48;;;;;;;5.32;1.95;;;19.00;73.40;;;;;;4925849;29;20019;-71
2022/11/29 10:23:17;;;;;;;7.07;1.42;;;19.00;73.40;;;;;;4941057;29;20110;-71
2022/11/29 10:25:48;;;;;;;11.48;2.10;;;19.00;73.40;;;;;;4957901;29;20024;-71
2022/11/29 10:28:15;;;;;;;5.03;2.10;;;18.90;73.40;;;;;;4940788;29;20019;-71
2022/11/29 10:30:41;;;;;;;5.18;1.83;;;19.00;73.40;;;;;;4940895;29;20046;-71
2022/11/29 10:33:27;;;;;;;4.72;1.88;;;19.00;73.40;;;;;;4940805;29;20038;-71
2022/11/29 10:35:57;;;;;;;4.70;1.60;;;19.00;73.40;;;;;;4956187;29;20078;-71
2022/11/29 10:38:23;;;;;;;6.18;2.22;;;19.00;73.40;;;;;;4948680;29;20027;-71
2022/11/29 10:40:53;;;;;;;6.28;1.70;;;18.90;73.40;;;;;;4938416;29;20028;-71
2022/11/29 10:43:19;;;;;;;7.30;2.47;;;18.90;73.40;;;;;;4937331;29;20390;-71
2022/11/29 10:45:49;;;;;;;4.90;1.80;;;18.90;73.40;;;;;;4921456;29;20027;-71
2022/11/29 10:48:19;;;;;;;5.28;2.00;;;18.90;73.40;;;;;;4921817;29;20024;-71
2022/11/29 10:50:47;;;;;;;5.10;1.55;;;18.90;73.30;;;;;;4921215;29;20485;-71
2022/11/29 10:53:16;;;;;;;6.43;1.60;;;18.90;73.30;;;;;;4921609;29;20501;-71
2022/11/29 10:55:47;;;;;;;4.45;1.50;;;18.90;73.30;;;;;;4938076;29;20461;-71
2022/11/29 10:58:13;;;;;;;6.00;2.05;;;18.90;73.30;;;;;;4936957;29;20024;-71
2022/11/29 11:01:05;;;;;;;4.45;1.90;;;18.90;73.30;;;;;;4936863;29;20505;-71
2022/11/29 11:03:31;;;;;;;4.18;1.50;;;18.90;73.30;;;;;;4921681;29;20406;-71
2022/11/29 11:06:05;;;;;;;8.27;2.25;;;18.90;73.30;;;;;;4947985;28;20039;-71
2022/11/29 11:08:31;;;;;;;3.90;1.30;;;18.90;73.30;;;;;;4959353;28;20027;-71
2022/11/29 11:10:56;;;;;;;3.05;1.30;;;18.90;73.20;;;;;;4959068;28;20381;-71
2022/11/29 11:13:27;;;;;;;2.95;1.45;;;18.90;73.30;;;;;;4959089;28;20029;-71
2022/11/29 11:16:09;;;;;;;3.88;1.85;;;18.90;73.30;;;;;;4959244;28;20058;-71
2022/11/29 11:18:35;;;;;;;4.78;1.83;;;18.90;73.20;;;;;;4976021;28;20054;-71
2022/11/29 11:21:01;;;;;;;4.38;1.27;;;18.90;73.30;;;;;;4959055;28;20051;-71
2022/11/29 11:23:31;;;;;;;3.20;1.30;;;18.90;73.30;;;;;;4958718;28;20026;-71
2022/11/29 11:26:00;;;;;;;3.35;1.40;;;18.90;73.30;;;;;;4976009;28;20027;-71
2022/11/29 11:28:27;;;;;;;4.07;1.70;;;18.90;73.20;;;;;;4959236;28;20025;-71
2022/11/29 11:30:56;;;;;;;4.75;1.30;;;18.90;73.20;;;;;;4958677;28;20015;-71
2022/11/29 11:33:33;;;;;;;3.72;1.45;;;18.90;73.20;;;;;;4942704;28;20023;-71
2022/11/29 11:36:24;;;;;;;2.22;1.40;;;18.90;73.20;;;;;;4958825;28;20034;-71
2022/11/29 11:39:20;;;;;;;2.95;1.02;;;18.90;73.20;;;;;;4975835;28;20026;-71
2022/11/29 11:44:35;;;;;;;4.30;1.67;;;18.90;73.20;;;;;;4967092;28;20102;-71
2022/11/29 11:47:01;;;;;;;2.60;1.30;;;18.90;73.20;;;;;;4994975;28;20022;-71
2022/11/29 11:49:34;;;;;;;3.38;1.05;;;18.90;73.20;;;;;;4961957;28;20381;-71
2022/11/29 11:52:00;;;;;;;1.65;1.10;;;19.00;73.20;;;;;;4962276;28;20050;-71
2022/11/29 11:54:26;;;;;;;2.00;1.10;;;19.00;73.20;;;;;;4945654;28;20062;-71
2022/11/29 11:56:52;;;;;;;3.30;1.20;;;19.00;73.10;;;;;;4977657;28;20570;-71
2022/11/29 11:59:19;;;;;;;2.22;1.30;;;19.00;73.10;;;;;;4961555;28;20113;-71
2022/11/29 12:01:45;;;;;;;3.13;1.50;;;19.00;73.20;;;;;;4961415;28;20030;-71
2022/11/29 12:04:18;;;;;;;2.75;0.95;;;19.00;73.20;;;;;;4995013;28;20073;-71
2022/11/29 12:06:57;;;;;;;4.55;1.67;;;19.00;73.20;;;;;;4978175;28;20047;-71
2022/11/29 12:09:55;;;;;;;3.53;1.20;;;19.00;73.10;;;;;;4962175;28;20369;-71
2022/11/29 12:12:29;;;;;;;1.67;0.88;;;19.00;73.10;;;;;;4994326;28;20038;-71
2022/11/29 12:15:05;;;;;;;3.15;1.00;;;19.00;73.10;;;;;;4977235;28;20062;-71
2022/11/29 12:17:38;;;;;;;2.55;1.10;;;19.00;73.00;;;;;;4978751;28;20038;-71
2022/11/29 12:20:16;;;;;;;1.83;1.20;;;19.00;73.10;;;;;;4977217;28;20500;-71
2022/11/29 12:22:57;;;;;;;3.45;0.90;;;19.00;73.10;;;;;;4994424;28;20105;-71
2022/11/29 12:25:28;;;;;;;3.42;1.05;;;19.00;73.10;;;;;;4978062;28;20026;-71
2022/11/29 12:27:54;;;;;;;2.33;1.08;;;19.00;73.00;;;;;;4977029;28;20018;-72
2022/11/29 12:30:19;;;;;;;2.47;1.00;;;19.00;73.10;;;;;;4976907;28;20097;-72
2022/11/29 12:33:04;;;;;;;2.30;1.08;;;19.00;73.00;;;;;;4976991;28;20117;-71
2022/11/29 12:35:49;;;;;;;3.00;1.33;;;19.10;73.10;;;;;;4976910;28;20037;-71
2022/11/29 12:38:39;;;;;;;1.83;1.13;;;19.10;73.20;;;;;;4994128;28;20057;-71
2022/11/29 12:41:41;;;;;;;2.47;1.10;;;19.10;73.20;;;;;;4993624;28;20030;-72
2022/11/29 12:44:19;;;;;;;1.80;0.90;;;19.10;73.20;;;;;;4979059;28;20370;-71
2022/11/29 12:46:49;;;;;;;2.58;1.17;;;19.10;73.10;;;;;;4994157;28;20033;-72
2022/11/29 12:49:34;;;;;;;1.83;0.90;;;19.10;73.10;;;;;;4977074;28;20019;-71
2022/11/29 12:52:35;;;;;;;2.05;0.90;;;19.10;73.10;;;;;;4976754;28;20497;-71
2022/11/29 12:55:34;;;;;;;1.73;0.82;;;19.10;73.20;;;;;;4955924;28;20045;-72
2022/11/29 12:58:31;;;;;;;2.08;0.80;;;19.10;73.20;;;;;;4976542;28;20084;-71
2022/11/29 13:01:06;;;;;;;1.60;0.80;;;19.10;73.20;;;;;;4985627;28;20057;-72
2022/11/29 13:03:38;;;;;;;1.55;0.93;;;19.10;73.10;;;;;;4976386;28;20027;-71
2022/11/29 13:06:11;;;;;;;1.90;0.88;;;19.10;73.10;;;;;;4993550;28;20137;-72
2022/11/29 13:08:46;;;;;;;2.20;0.80;;;19.20;73.20;;;;;;4976287;28;20030;-71
2022/11/29 13:11:33;;;;;;;0.98;0.80;;;19.10;73.10;;;;;;4993515;28;20061;-72
2022/11/29 13:14:38;;;;;;;1.42;0.80;;;19.20;73.20;;;;;;4976226;28;20019;-72
2022/11/29 13:17:12;;;;;;;1.35;0.90;;;19.20;73.10;;;;;;4977148;28;20030;-71
2022/11/29 13:20:18;;;;;;;1.77;0.90;;;19.20;73.10;;;;;;4976165;28;20024;-71
2022/11/29 13:22:51;;;;;;;1.83;1.00;;;19.20;73.10;;;;;;4976110;28;20126;-72
2022/11/29 13:25:23;;;;;;;2.22;0.90;;;19.20;73.10;;;;;;4976131;28;20389;-72
2022/11/29 13:28:00;;;;;;;1.25;0.80;;;19.20;73.10;;;;;;4976101;28;20034;-71
2022/11/29 13:30:26;;;;;;;1.30;1.05;;;19.20;73.10;;;;;;4976156;28;20022;-71
2022/11/29 13:33:01;;;;;;;1.83;0.88;;;19.20;73.10;;;;;;4975882;28;20027;-71
2022/11/29 13:35:36;;;;;;;0.93;0.52;;;19.20;73.10;;;;;;4993323;28;20033;-72
2022/11/29 13:38:44;;;;;;;1.20;0.60;;;19.20;73.10;;;;;;4975845;28;20019;-71